This is the latest recevied weather packets stored in our database for station/object VK4ZPK-13. If no packets are shown the sender has not sent any weather packets the latest 10 day(s).
| Time | Temp. | Humidity | Pressure | Rain* | Wind** | Luminosity | Snow |
|---|---|---|---|---|---|---|---|
| 1777447257 | 22.78° C | 72% | 1018.5 hPa | 0 mm | - | - | - |
| 1777445457 | 23.33° C | 72% | 1018.3 hPa | 0 mm | - | - | - |
| 1777443657 | 23.89° C | 72% | 1018 hPa | 0 mm | - | - | - |
| 1777441857 | 23.89° C | 72% | 1017.7 hPa | 0 mm | - | - | - |
| 1777440057 | 25° C | 69% | 1017.6 hPa | 0 mm | - | - | - |
| 1777438257 | 25° C | 67% | 1017.5 hPa | 0 mm | - | - | - |
| 1777436457 | 25° C | 67% | 1017.5 hPa | 0 mm | - | - | - |
| 1777434657 | 25° C | 65% | 1017.8 hPa | 0 mm | - | - | - |
| 1777432857 | 25.56° C | 64% | 1018 hPa | 0 mm | - | - | - |
| 1777431057 | 25° C | 63% | 1018.2 hPa | 0 mm | - | - | - |
| 1777429257 | 25° C | 64% | 1018.5 hPa | 0 mm | - | - | - |
| 1777427457 | 25° C | 68% | 1018.9 hPa | 0 mm | - | - | - |
| 1777425657 | 25° C | 65% | 1019 hPa | 0 mm | - | - | - |
| 1777423857 | 25° C | 68% | 1019.2 hPa | 0 mm | - | - | - |
| 1777422057 | 24.44° C | 70% | 1019.1 hPa | 0 mm | - | - | - |
| 1777420257 | 23.33° C | 81% | 1019.1 hPa | 0 mm | - | - | - |
| 1777418457 | 21.67° C | 89% | 1018.9 hPa | 0 mm | - | - | - |
| 1777416657 | 20.56° C | 93% | 1018.8 hPa | 0 mm | - | - | - |
| 1777414857 | 20° C | 96% | 1018.7 hPa | 0 mm | - | - | - |
| 1777413057 | 18.33° C | 95% | 1018.6 hPa | 0 mm | - | - | - |
| 1777411257 | 17.78° C | 97% | 1018.6 hPa | 0 mm | - | - | - |
| 1777409457 | 17.22° C | 96% | 1018.3 hPa | 0 mm | - | - | - |
| 1777407657 | 17.22° C | 96% | 1018 hPa | 0 mm | - | - | - |
| 1777405857 | 17.22° C | 96% | 1017.6 hPa | 0 mm | - | - | - |
| 1777404057 | 17.22° C | 95% | 1017.4 hPa | 0 mm | - | - | - |
* Rain latest hour (hover to see other rain measurements)
** Current wind speed in m/s (hover to see current wind gust speed)